<?xml version="1.0" encoding="UTF-8" standalone="no" ?>
<gpx xmlns="http://www.topografix.com/GPX/1/1" xmlns:xsi="http://www.w3.org/2001/XMLSchema-instance" xsi:schemaLocation="http://www.topografix.com/GPX/1/1 http://www.topografix.com/GPX/1/1/gpx.xsd" version="1.1" creator="VisuGPX - https://www.visugpx.com">
  <metadata>
    <name>Grand Colombier</name>
    <desc><![CDATA[rando raquette au colombier]]></desc>
  </metadata>
  <trk>
    <name><![CDATA[Colombier]]></name>
    <trkseg>
      <trkpt lat="45.9528" lon="5.74723">
        <ele>995.1018066</ele>
        <time>2011-12-29T09:09:04Z</time>
      </trkpt>
      <trkpt lat="45.95247" lon="5.74722">
        <ele>995.1018066</ele>
        <time>2011-12-29T09:09:25Z</time>
      </trkpt>
      <trkpt lat="45.95249" lon="5.74717">
        <ele>991.2565918</ele>
        <time>2011-12-29T09:09:46Z</time>
      </trkpt>
      <trkpt lat="45.95249" lon="5.74717">
        <ele>995.5825195</ele>
        <time>2011-12-29T09:09:47Z</time>
      </trkpt>
      <trkpt lat="45.95255" lon="5.74719">
        <ele>996.0632324</ele>
        <time>2011-12-29T09:10:00Z</time>
      </trkpt>
      <trkpt lat="45.95262" lon="5.74726">
        <ele>995.5825195</ele>
        <time>2011-12-29T09:10:31Z</time>
      </trkpt>
      <trkpt lat="45.95227" lon="5.74761">
        <ele>1000.8696289</ele>
        <time>2011-12-29T09:11:10Z</time>
      </trkpt>
      <trkpt lat="45.95236" lon="5.74877">
        <ele>1011.4443359</ele>
        <time>2011-12-29T09:12:47Z</time>
      </trkpt>
      <trkpt lat="45.95246" lon="5.74879">
        <ele>1008.5603027</ele>
        <time>2011-12-29T09:13:26Z</time>
      </trkpt>
      <trkpt lat="45.95235" lon="5.74899">
        <ele>1024.4221191</ele>
        <time>2011-12-29T09:16:41Z</time>
      </trkpt>
      <trkpt lat="45.95251" lon="5.74966">
        <ele>1027.7866211</ele>
        <time>2011-12-29T09:17:38Z</time>
      </trkpt>
      <trkpt lat="45.95194" lon="5.75081">
        <ele>1215.7246094</ele>
        <time>2011-12-29T09:19:33Z</time>
      </trkpt>
      <trkpt lat="45.95169" lon="5.75115">
        <ele>1212.8405762</ele>
        <time>2011-12-29T09:19:59Z</time>
      </trkpt>
      <trkpt lat="45.95122" lon="5.75248">
        <ele>1208.0339355</ele>
        <time>2011-12-29T09:21:40Z</time>
      </trkpt>
      <trkpt lat="45.95101" lon="5.75294">
        <ele>1204.1887207</ele>
        <time>2011-12-29T09:22:17Z</time>
      </trkpt>
      <trkpt lat="45.95094" lon="5.7534">
        <ele>1202.746582</ele>
        <time>2011-12-29T09:22:39Z</time>
      </trkpt>
      <trkpt lat="45.95119" lon="5.7536">
        <ele>1200.8239746</ele>
        <time>2011-12-29T09:23:11Z</time>
      </trkpt>
      <trkpt lat="45.95136" lon="5.75383">
        <ele>1198.4206543</ele>
        <time>2011-12-29T09:23:35Z</time>
      </trkpt>
      <trkpt lat="45.95176" lon="5.75379">
        <ele>1195.0559082</ele>
        <time>2011-12-29T09:24:12Z</time>
      </trkpt>
      <trkpt lat="45.95159" lon="5.75367">
        <ele>1199.862793</ele>
        <time>2011-12-29T09:26:01Z</time>
      </trkpt>
      <trkpt lat="45.9522" lon="5.75408">
        <ele>1197.9401855</ele>
        <time>2011-12-29T09:27:19Z</time>
      </trkpt>
      <trkpt lat="45.9525" lon="5.75421">
        <ele>1196.498291</ele>
        <time>2011-12-29T09:27:44Z</time>
      </trkpt>
      <trkpt lat="45.95264" lon="5.75455">
        <ele>1195.0559082</ele>
        <time>2011-12-29T09:28:09Z</time>
      </trkpt>
      <trkpt lat="45.95193" lon="5.75554">
        <ele>1189.2880859</ele>
        <time>2011-12-29T09:29:21Z</time>
      </trkpt>
      <trkpt lat="45.95117" lon="5.75628">
        <ele>1186.4042969</ele>
        <time>2011-12-29T09:31:58Z</time>
      </trkpt>
      <trkpt lat="45.95026" lon="5.7581">
        <ele>1205.1499023</ele>
        <time>2011-12-29T09:34:41Z</time>
      </trkpt>
      <trkpt lat="45.9502" lon="5.75815">
        <ele>1208.9951172</ele>
        <time>2011-12-29T09:34:53Z</time>
      </trkpt>
      <trkpt lat="45.95002" lon="5.75822">
        <ele>1213.8017578</ele>
        <time>2011-12-29T09:35:17Z</time>
      </trkpt>
      <trkpt lat="45.95001" lon="5.7582">
        <ele>1212.3598633</ele>
        <time>2011-12-29T09:35:20Z</time>
      </trkpt>
      <trkpt lat="45.94908" lon="5.75925">
        <ele>1247.447998</ele>
        <time>2011-12-29T09:38:38Z</time>
      </trkpt>
      <trkpt lat="45.94856" lon="5.75994">
        <ele>1258.9836426</ele>
        <time>2011-12-29T09:40:44Z</time>
      </trkpt>
      <trkpt lat="45.94802" lon="5.76024">
        <ele>1276.7683105</ele>
        <time>2011-12-29T09:42:15Z</time>
      </trkpt>
      <trkpt lat="45.94783" lon="5.76078">
        <ele>1289.2651367</ele>
        <time>2011-12-29T09:44:08Z</time>
      </trkpt>
      <trkpt lat="45.94725" lon="5.76127">
        <ele>1295.9946289</ele>
        <time>2011-12-29T09:45:31Z</time>
      </trkpt>
      <trkpt lat="45.94718" lon="5.76148">
        <ele>1295.513916</ele>
        <time>2011-12-29T09:46:15Z</time>
      </trkpt>
      <trkpt lat="45.94643" lon="5.76173">
        <ele>1301.7624512</ele>
        <time>2011-12-29T09:47:53Z</time>
      </trkpt>
      <trkpt lat="45.94578" lon="5.7623">
        <ele>1314.2595215</ele>
        <time>2011-12-29T09:49:50Z</time>
      </trkpt>
      <trkpt lat="45.94546" lon="5.76271">
        <ele>1317.6240234</ele>
        <time>2011-12-29T09:50:46Z</time>
      </trkpt>
      <trkpt lat="45.94446" lon="5.76343">
        <ele>1337.3310547</ele>
        <time>2011-12-29T09:53:38Z</time>
      </trkpt>
      <trkpt lat="45.94433" lon="5.76359">
        <ele>1337.3310547</ele>
        <time>2011-12-29T09:54:00Z</time>
      </trkpt>
      <trkpt lat="45.94425" lon="5.76359">
        <ele>1338.7731934</ele>
        <time>2011-12-29T09:54:57Z</time>
      </trkpt>
      <trkpt lat="45.94367" lon="5.76371">
        <ele>1335.8891602</ele>
        <time>2011-12-29T09:55:48Z</time>
      </trkpt>
      <trkpt lat="45.94352" lon="5.76371">
        <ele>1335.8891602</ele>
        <time>2011-12-29T09:56:08Z</time>
      </trkpt>
      <trkpt lat="45.94213" lon="5.76437">
        <ele>1326.276123</ele>
        <time>2011-12-29T09:58:37Z</time>
      </trkpt>
      <trkpt lat="45.94162" lon="5.76434">
        <ele>1321.4692383</ele>
        <time>2011-12-29T09:59:30Z</time>
      </trkpt>
      <trkpt lat="45.94152" lon="5.76456">
        <ele>1324.3535156</ele>
        <time>2011-12-29T09:59:47Z</time>
      </trkpt>
      <trkpt lat="45.94065" lon="5.76501">
        <ele>1327.2375488</ele>
        <time>2011-12-29T10:01:28Z</time>
      </trkpt>
      <trkpt lat="45.93925" lon="5.76545">
        <ele>1346.4638672</ele>
        <time>2011-12-29T10:04:53Z</time>
      </trkpt>
      <trkpt lat="45.93874" lon="5.76559">
        <ele>1350.309082</ele>
        <time>2011-12-29T10:05:53Z</time>
      </trkpt>
      <trkpt lat="45.93799" lon="5.76586">
        <ele>1352.2314453</ele>
        <time>2011-12-29T10:07:21Z</time>
      </trkpt>
      <trkpt lat="45.93619" lon="5.76634">
        <ele>1356.5576172</ele>
        <time>2011-12-29T10:10:28Z</time>
      </trkpt>
      <trkpt lat="45.9359" lon="5.76641">
        <ele>1355.1154785</ele>
        <time>2011-12-29T10:11:01Z</time>
      </trkpt>
      <trkpt lat="45.93569" lon="5.76628">
        <ele>1359.4416504</ele>
        <time>2011-12-29T10:11:36Z</time>
      </trkpt>
      <trkpt lat="45.93552" lon="5.76639">
        <ele>1364.7287598</ele>
        <time>2011-12-29T10:12:04Z</time>
      </trkpt>
      <trkpt lat="45.93534" lon="5.76654">
        <ele>1367.6125488</ele>
        <time>2011-12-29T10:12:28Z</time>
      </trkpt>
      <trkpt lat="45.9352" lon="5.76674">
        <ele>1374.8227539</ele>
        <time>2011-12-29T10:12:57Z</time>
      </trkpt>
      <trkpt lat="45.93415" lon="5.76741">
        <ele>1400.2976074</ele>
        <time>2011-12-29T10:15:42Z</time>
      </trkpt>
      <trkpt lat="45.93291" lon="5.76804">
        <ele>1411.8334961</ele>
        <time>2011-12-29T10:19:21Z</time>
      </trkpt>
      <trkpt lat="45.93221" lon="5.76853">
        <ele>1398.8554688</ele>
        <time>2011-12-29T10:20:26Z</time>
      </trkpt>
      <trkpt lat="45.931" lon="5.76898">
        <ele>1382.0324707</ele>
        <time>2011-12-29T10:22:12Z</time>
      </trkpt>
      <trkpt lat="45.93006" lon="5.76911">
        <ele>1384.435791</ele>
        <time>2011-12-29T10:24:42Z</time>
      </trkpt>
      <trkpt lat="45.92934" lon="5.76886">
        <ele>1404.1430664</ele>
        <time>2011-12-29T10:27:16Z</time>
      </trkpt>
      <trkpt lat="45.92904" lon="5.76884">
        <ele>1409.4301758</ele>
        <time>2011-12-29T10:28:07Z</time>
      </trkpt>
      <trkpt lat="45.92885" lon="5.76868">
        <ele>1414.7172852</ele>
        <time>2011-12-29T10:28:48Z</time>
      </trkpt>
      <trkpt lat="45.92833" lon="5.76858">
        <ele>1420.9660645</ele>
        <time>2011-12-29T10:31:02Z</time>
      </trkpt>
      <trkpt lat="45.92786" lon="5.76862">
        <ele>1422.8886719</ele>
        <time>2011-12-29T10:32:27Z</time>
      </trkpt>
      <trkpt lat="45.92702" lon="5.76876">
        <ele>1420.4853516</ele>
        <time>2011-12-29T10:34:10Z</time>
      </trkpt>
      <trkpt lat="45.92655" lon="5.76876">
        <ele>1412.7946777</ele>
        <time>2011-12-29T10:36:09Z</time>
      </trkpt>
      <trkpt lat="45.92576" lon="5.76844">
        <ele>1405.104248</ele>
        <time>2011-12-29T10:38:05Z</time>
      </trkpt>
      <trkpt lat="45.92522" lon="5.76823">
        <ele>1395.0102539</ele>
        <time>2011-12-29T10:39:57Z</time>
      </trkpt>
      <trkpt lat="45.92377" lon="5.76741">
        <ele>1358.9609375</ele>
        <time>2011-12-29T10:43:05Z</time>
      </trkpt>
      <trkpt lat="45.92228" lon="5.76784">
        <ele>1370.496582</ele>
        <time>2011-12-29T10:46:36Z</time>
      </trkpt>
      <trkpt lat="45.92191" lon="5.76782">
        <ele>1372.9001465</ele>
        <time>2011-12-29T10:47:23Z</time>
      </trkpt>
      <trkpt lat="45.92122" lon="5.76773">
        <ele>1370.9772949</ele>
        <time>2011-12-29T10:48:40Z</time>
      </trkpt>
      <trkpt lat="45.92095" lon="5.76765">
        <ele>1368.0932617</ele>
        <time>2011-12-29T10:49:07Z</time>
      </trkpt>
      <trkpt lat="45.92045" lon="5.76745">
        <ele>1359.9221191</ele>
        <time>2011-12-29T10:52:39Z</time>
      </trkpt>
      <trkpt lat="45.91991" lon="5.76725">
        <ele>1347.4250488</ele>
        <time>2011-12-29T10:53:54Z</time>
      </trkpt>
      <trkpt lat="45.91755" lon="5.76724">
        <ele>1318.1047363</ele>
        <time>2011-12-29T11:04:55Z</time>
      </trkpt>
      <trkpt lat="45.91598" lon="5.76625">
        <ele>1363.2868652</ele>
        <time>2011-12-29T11:09:29Z</time>
      </trkpt>
      <trkpt lat="45.91557" lon="5.76611">
        <ele>1373.8613281</ele>
        <time>2011-12-29T11:10:22Z</time>
      </trkpt>
      <trkpt lat="45.91479" lon="5.76556">
        <ele>1385.3969727</ele>
        <time>2011-12-29T11:11:56Z</time>
      </trkpt>
      <trkpt lat="45.9145" lon="5.7655">
        <ele>1381.5517578</ele>
        <time>2011-12-29T11:12:20Z</time>
      </trkpt>
      <trkpt lat="45.91444" lon="5.76529">
        <ele>1384.435791</ele>
        <time>2011-12-29T11:12:31Z</time>
      </trkpt>
      <trkpt lat="45.914" lon="5.76512">
        <ele>1383.4743652</ele>
        <time>2011-12-29T11:13:20Z</time>
      </trkpt>
      <trkpt lat="45.91292" lon="5.76417">
        <ele>1419.5239258</ele>
        <time>2011-12-29T11:17:17Z</time>
      </trkpt>
      <trkpt lat="45.91291" lon="5.76396">
        <ele>1426.2531738</ele>
        <time>2011-12-29T11:17:51Z</time>
      </trkpt>
      <trkpt lat="45.91234" lon="5.76367">
        <ele>1449.8054199</ele>
        <time>2011-12-29T11:22:07Z</time>
      </trkpt>
      <trkpt lat="45.91227" lon="5.76358">
        <ele>1451.7280273</ele>
        <time>2011-12-29T11:22:30Z</time>
      </trkpt>
      <trkpt lat="45.91193" lon="5.76362">
        <ele>1462.3024902</ele>
        <time>2011-12-29T11:23:46Z</time>
      </trkpt>
      <trkpt lat="45.91149" lon="5.76335">
        <ele>1474.3190918</ele>
        <time>2011-12-29T11:25:46Z</time>
      </trkpt>
      <trkpt lat="45.91125" lon="5.76305">
        <ele>1478.1643066</ele>
        <time>2011-12-29T11:27:23Z</time>
      </trkpt>
      <trkpt lat="45.91123" lon="5.76328">
        <ele>1484.8937988</ele>
        <time>2011-12-29T11:28:38Z</time>
      </trkpt>
      <trkpt lat="45.911" lon="5.76337">
        <ele>1496.4294434</ele>
        <time>2011-12-29T11:29:51Z</time>
      </trkpt>
      <trkpt lat="45.91088" lon="5.76337">
        <ele>1499.3132324</ele>
        <time>2011-12-29T11:30:11Z</time>
      </trkpt>
      <trkpt lat="45.90997" lon="5.76281">
        <ele>1502.6779785</ele>
        <time>2011-12-29T11:33:47Z</time>
      </trkpt>
      <trkpt lat="45.9093" lon="5.76249">
        <ele>1489.7001953</ele>
        <time>2011-12-29T11:34:47Z</time>
      </trkpt>
      <trkpt lat="45.90851" lon="5.76183">
        <ele>1486.8161621</ele>
        <time>2011-12-29T11:36:21Z</time>
      </trkpt>
      <trkpt lat="45.90704" lon="5.76178">
        <ele>1524.7883301</ele>
        <time>2011-12-29T11:40:07Z</time>
      </trkpt>
      <trkpt lat="45.9067" lon="5.76165">
        <ele>1528.6335449</ele>
        <time>2011-12-29T11:45:09Z</time>
      </trkpt>
      <trkpt lat="45.90619" lon="5.76153">
        <ele>1528.152832</ele>
        <time>2011-12-29T11:47:15Z</time>
      </trkpt>
      <trkpt lat="45.90678" lon="5.76165">
        <ele>1526.2302246</ele>
        <time>2011-12-29T11:50:37Z</time>
      </trkpt>
      <trkpt lat="45.9072" lon="5.76178">
        <ele>1518.5397949</ele>
        <time>2011-12-29T11:51:23Z</time>
      </trkpt>
      <trkpt lat="45.90851" lon="5.76185">
        <ele>1484.4130859</ele>
        <time>2011-12-29T11:53:56Z</time>
      </trkpt>
      <trkpt lat="45.90952" lon="5.76261">
        <ele>1493.5454102</ele>
        <time>2011-12-29T11:56:40Z</time>
      </trkpt>
      <trkpt lat="45.90994" lon="5.76274">
        <ele>1499.7939453</ele>
        <time>2011-12-29T11:57:56Z</time>
      </trkpt>
      <trkpt lat="45.91081" lon="5.7633">
        <ele>1496.4294434</ele>
        <time>2011-12-29T12:00:08Z</time>
      </trkpt>
      <trkpt lat="45.91102" lon="5.76331">
        <ele>1489.7001953</ele>
        <time>2011-12-29T12:00:39Z</time>
      </trkpt>
      <trkpt lat="45.91138" lon="5.76321">
        <ele>1469.5126953</ele>
        <time>2011-12-29T12:01:59Z</time>
      </trkpt>
      <trkpt lat="45.91146" lon="5.76336">
        <ele>1468.5512695</ele>
        <time>2011-12-29T12:02:42Z</time>
      </trkpt>
      <trkpt lat="45.91181" lon="5.76354">
        <ele>1458.4572754</ele>
        <time>2011-12-29T12:03:46Z</time>
      </trkpt>
      <trkpt lat="45.91285" lon="5.76384">
        <ele>1421.9272461</ele>
        <time>2011-12-29T12:07:16Z</time>
      </trkpt>
      <trkpt lat="45.91322" lon="5.76433">
        <ele>1399.8168945</ele>
        <time>2011-12-29T12:09:08Z</time>
      </trkpt>
      <trkpt lat="45.91408" lon="5.76491">
        <ele>1378.6679688</ele>
        <time>2011-12-29T12:11:45Z</time>
      </trkpt>
      <trkpt lat="45.91425" lon="5.76523">
        <ele>1375.7839355</ele>
        <time>2011-12-29T12:12:11Z</time>
      </trkpt>
      <trkpt lat="45.9148" lon="5.76546">
        <ele>1376.7453613</ele>
        <time>2011-12-29T12:13:20Z</time>
      </trkpt>
      <trkpt lat="45.915" lon="5.76552">
        <ele>1373.3808594</ele>
        <time>2011-12-29T12:13:37Z</time>
      </trkpt>
      <trkpt lat="45.91526" lon="5.76586">
        <ele>1371.4577637</ele>
        <time>2011-12-29T12:14:07Z</time>
      </trkpt>
      <trkpt lat="45.91565" lon="5.76613">
        <ele>1363.2868652</ele>
        <time>2011-12-29T12:15:32Z</time>
      </trkpt>
      <trkpt lat="45.91608" lon="5.76618">
        <ele>1349.3476563</ele>
        <time>2011-12-29T12:16:31Z</time>
      </trkpt>
      <trkpt lat="45.91708" lon="5.76702">
        <ele>1320.5080566</ele>
        <time>2011-12-29T12:18:25Z</time>
      </trkpt>
      <trkpt lat="45.91762" lon="5.76726">
        <ele>1308.9724121</ele>
        <time>2011-12-29T12:19:22Z</time>
      </trkpt>
      <trkpt lat="45.91815" lon="5.76718">
        <ele>1309.9335938</ele>
        <time>2011-12-29T12:37:31Z</time>
      </trkpt>
      <trkpt lat="45.91918" lon="5.76632">
        <ele>1294.0720215</ele>
        <time>2011-12-29T12:41:18Z</time>
      </trkpt>
      <trkpt lat="45.92054" lon="5.76568">
        <ele>1275.8066406</ele>
        <time>2011-12-29T12:43:15Z</time>
      </trkpt>
      <trkpt lat="45.92052" lon="5.76572">
        <ele>1275.8066406</ele>
        <time>2011-12-29T12:44:00Z</time>
      </trkpt>
      <trkpt lat="45.92055" lon="5.76551">
        <ele>1275.8066406</ele>
        <time>2011-12-29T12:44:51Z</time>
      </trkpt>
      <trkpt lat="45.92057" lon="5.76458">
        <ele>1239.2766113</ele>
        <time>2011-12-29T12:47:12Z</time>
      </trkpt>
      <trkpt lat="45.92006" lon="5.76447">
        <ele>1231.1057129</ele>
        <time>2011-12-29T12:48:19Z</time>
      </trkpt>
      <trkpt lat="45.92015" lon="5.76437">
        <ele>1230.625</ele>
        <time>2011-12-29T12:48:44Z</time>
      </trkpt>
      <trkpt lat="45.92008" lon="5.76445">
        <ele>1230.625</ele>
        <time>2011-12-29T12:49:35Z</time>
      </trkpt>
      <trkpt lat="45.92012" lon="5.76437">
        <ele>1228.2216797</ele>
        <time>2011-12-29T12:49:45Z</time>
      </trkpt>
      <trkpt lat="45.92035" lon="5.76418">
        <ele>1219.0891113</ele>
        <time>2011-12-29T12:50:08Z</time>
      </trkpt>
      <trkpt lat="45.92051" lon="5.76384">
        <ele>1214.2824707</ele>
        <time>2011-12-29T12:51:03Z</time>
      </trkpt>
      <trkpt lat="45.92049" lon="5.76418">
        <ele>1214.7631836</ele>
        <time>2011-12-29T12:52:06Z</time>
      </trkpt>
      <trkpt lat="45.92062" lon="5.76392">
        <ele>1215.2438965</ele>
        <time>2011-12-29T12:54:05Z</time>
      </trkpt>
      <trkpt lat="45.9204" lon="5.76396">
        <ele>1217.6469727</ele>
        <time>2011-12-29T12:57:47Z</time>
      </trkpt>
      <trkpt lat="45.92033" lon="5.7641">
        <ele>1218.1276855</ele>
        <time>2011-12-29T12:58:15Z</time>
      </trkpt>
      <trkpt lat="45.92029" lon="5.76362">
        <ele>1218.6083984</ele>
        <time>2011-12-29T12:59:11Z</time>
      </trkpt>
      <trkpt lat="45.92065" lon="5.76383">
        <ele>1217.1665039</ele>
        <time>2011-12-29T13:00:41Z</time>
      </trkpt>
      <trkpt lat="45.92117" lon="5.76385">
        <ele>1210.4370117</ele>
        <time>2011-12-29T13:01:19Z</time>
      </trkpt>
      <trkpt lat="45.92223" lon="5.7636">
        <ele>1197.4594727</ele>
        <time>2011-12-29T13:02:50Z</time>
      </trkpt>
      <trkpt lat="45.92335" lon="5.76406">
        <ele>1196.498291</ele>
        <time>2011-12-29T13:04:28Z</time>
      </trkpt>
      <trkpt lat="45.92369" lon="5.76393">
        <ele>1194.0947266</ele>
        <time>2011-12-29T13:05:07Z</time>
      </trkpt>
      <trkpt lat="45.92376" lon="5.76389">
        <ele>1191.2106934</ele>
        <time>2011-12-29T13:05:17Z</time>
      </trkpt>
      <trkpt lat="45.92442" lon="5.76394">
        <ele>1181.5976563</ele>
        <time>2011-12-29T13:06:08Z</time>
      </trkpt>
      <trkpt lat="45.92503" lon="5.7643">
        <ele>1175.8295898</ele>
        <time>2011-12-29T13:07:02Z</time>
      </trkpt>
      <trkpt lat="45.92509" lon="5.76432">
        <ele>1171.984375</ele>
        <time>2011-12-29T13:07:09Z</time>
      </trkpt>
      <trkpt lat="45.92508" lon="5.76428">
        <ele>1174.8684082</ele>
        <time>2011-12-29T13:07:13Z</time>
      </trkpt>
      <trkpt lat="45.92521" lon="5.76412">
        <ele>1173.4265137</ele>
        <time>2011-12-29T13:07:32Z</time>
      </trkpt>
      <trkpt lat="45.9254" lon="5.764">
        <ele>1171.5036621</ele>
        <time>2011-12-29T13:07:48Z</time>
      </trkpt>
      <trkpt lat="45.92683" lon="5.76412">
        <ele>1170.5424805</ele>
        <time>2011-12-29T13:09:58Z</time>
      </trkpt>
      <trkpt lat="45.92759" lon="5.7644">
        <ele>1172.4650879</ele>
        <time>2011-12-29T13:11:37Z</time>
      </trkpt>
      <trkpt lat="45.92807" lon="5.76369">
        <ele>1172.9458008</ele>
        <time>2011-12-29T13:12:57Z</time>
      </trkpt>
      <trkpt lat="45.9284" lon="5.7635">
        <ele>1172.9458008</ele>
        <time>2011-12-29T13:13:31Z</time>
      </trkpt>
      <trkpt lat="45.92872" lon="5.76376">
        <ele>1173.4265137</ele>
        <time>2011-12-29T13:14:23Z</time>
      </trkpt>
      <trkpt lat="45.92889" lon="5.76406">
        <ele>1171.5036621</ele>
        <time>2011-12-29T13:14:53Z</time>
      </trkpt>
      <trkpt lat="45.92906" lon="5.76412">
        <ele>1171.0231934</ele>
        <time>2011-12-29T13:15:22Z</time>
      </trkpt>
      <trkpt lat="45.92955" lon="5.76463">
        <ele>1165.2553711</ele>
        <time>2011-12-29T13:16:16Z</time>
      </trkpt>
      <trkpt lat="45.93189" lon="5.76441">
        <ele>1147.4707031</ele>
        <time>2011-12-29T13:20:09Z</time>
      </trkpt>
      <trkpt lat="45.93346" lon="5.76301">
        <ele>1138.3383789</ele>
        <time>2011-12-29T13:23:05Z</time>
      </trkpt>
      <trkpt lat="45.93411" lon="5.7627">
        <ele>1141.7028809</ele>
        <time>2011-12-29T13:24:22Z</time>
      </trkpt>
      <trkpt lat="45.93542" lon="5.76177">
        <ele>1143.1447754</ele>
        <time>2011-12-29T13:27:39Z</time>
      </trkpt>
      <trkpt lat="45.93664" lon="5.76137">
        <ele>1148.4321289</ele>
        <time>2011-12-29T13:30:45Z</time>
      </trkpt>
      <trkpt lat="45.93698" lon="5.76112">
        <ele>1148.9128418</ele>
        <time>2011-12-29T13:31:54Z</time>
      </trkpt>
      <trkpt lat="45.93922" lon="5.76044">
        <ele>1157.5646973</ele>
        <time>2011-12-29T13:36:40Z</time>
      </trkpt>
      <trkpt lat="45.93945" lon="5.76026">
        <ele>1158.0454102</ele>
        <time>2011-12-29T13:37:14Z</time>
      </trkpt>
      <trkpt lat="45.94108" lon="5.75996">
        <ele>1171.984375</ele>
        <time>2011-12-29T13:43:00Z</time>
      </trkpt>
      <trkpt lat="45.94137" lon="5.75973">
        <ele>1177.2717285</ele>
        <time>2011-12-29T13:44:00Z</time>
      </trkpt>
      <trkpt lat="45.94179" lon="5.75949">
        <ele>1181.5976563</ele>
        <time>2011-12-29T13:45:09Z</time>
      </trkpt>
      <trkpt lat="45.94192" lon="5.75937">
        <ele>1183.0395508</ele>
        <time>2011-12-29T13:45:30Z</time>
      </trkpt>
      <trkpt lat="45.94222" lon="5.75932">
        <ele>1186.8847656</ele>
        <time>2011-12-29T13:46:21Z</time>
      </trkpt>
      <trkpt lat="45.94239" lon="5.75912">
        <ele>1187.8461914</ele>
        <time>2011-12-29T13:49:29Z</time>
      </trkpt>
      <trkpt lat="45.94301" lon="5.75902">
        <ele>1192.652832</ele>
        <time>2011-12-29T13:50:50Z</time>
      </trkpt>
      <trkpt lat="45.94339" lon="5.7592">
        <ele>1198.9013672</ele>
        <time>2011-12-29T13:51:46Z</time>
      </trkpt>
      <trkpt lat="45.9435" lon="5.7592">
        <ele>1199.862793</ele>
        <time>2011-12-29T13:52:04Z</time>
      </trkpt>
      <trkpt lat="45.94439" lon="5.75889">
        <ele>1213.8017578</ele>
        <time>2011-12-29T13:54:33Z</time>
      </trkpt>
      <trkpt lat="45.9448" lon="5.75856">
        <ele>1215.2438965</ele>
        <time>2011-12-29T13:55:42Z</time>
      </trkpt>
      <trkpt lat="45.94577" lon="5.7584">
        <ele>1215.2438965</ele>
        <time>2011-12-29T13:58:20Z</time>
      </trkpt>
      <trkpt lat="45.94676" lon="5.75777">
        <ele>1217.1665039</ele>
        <time>2011-12-29T14:00:40Z</time>
      </trkpt>
      <trkpt lat="45.94777" lon="5.75757">
        <ele>1222.4536133</ele>
        <time>2011-12-29T14:02:49Z</time>
      </trkpt>
      <trkpt lat="45.94831" lon="5.75804">
        <ele>1233.5087891</ele>
        <time>2011-12-29T14:05:40Z</time>
      </trkpt>
      <trkpt lat="45.94884" lon="5.75774">
        <ele>1237.3540039</ele>
        <time>2011-12-29T14:07:27Z</time>
      </trkpt>
      <trkpt lat="45.94984" lon="5.75755">
        <ele>1242.1606445</ele>
        <time>2011-12-29T14:09:23Z</time>
      </trkpt>
      <trkpt lat="45.95047" lon="5.75729">
        <ele>1242.6413574</ele>
        <time>2011-12-29T14:10:36Z</time>
      </trkpt>
      <trkpt lat="45.95062" lon="5.75726">
        <ele>1240.2380371</ele>
        <time>2011-12-29T14:10:59Z</time>
      </trkpt>
      <trkpt lat="45.95131" lon="5.75611">
        <ele>1240.7185059</ele>
        <time>2011-12-29T14:13:16Z</time>
      </trkpt>
      <trkpt lat="45.95248" lon="5.75471">
        <ele>1251.2932129</ele>
        <time>2011-12-29T14:16:26Z</time>
      </trkpt>
      <trkpt lat="45.95257" lon="5.75443">
        <ele>1253.2158203</ele>
        <time>2011-12-29T14:17:01Z</time>
      </trkpt>
      <trkpt lat="45.95228" lon="5.75404">
        <ele>1258.5029297</ele>
        <time>2011-12-29T14:17:57Z</time>
      </trkpt>
      <trkpt lat="45.95157" lon="5.75365">
        <ele>1265.7131348</ele>
        <time>2011-12-29T14:19:44Z</time>
      </trkpt>
      <trkpt lat="45.95099" lon="5.7534">
        <ele>1270.0388184</ele>
        <time>2011-12-29T14:20:49Z</time>
      </trkpt>
      <trkpt lat="45.95093" lon="5.75311">
        <ele>1271.4807129</ele>
        <time>2011-12-29T14:21:07Z</time>
      </trkpt>
      <trkpt lat="45.95102" lon="5.75249">
        <ele>1276.7683105</ele>
        <time>2011-12-29T14:22:07Z</time>
      </trkpt>
      <trkpt lat="45.95118" lon="5.75246">
        <ele>1278.690918</ele>
        <time>2011-12-29T14:22:24Z</time>
      </trkpt>
      <trkpt lat="45.95131" lon="5.75215">
        <ele>1282.0554199</ele>
        <time>2011-12-29T14:23:07Z</time>
      </trkpt>
      <trkpt lat="45.95143" lon="5.75142">
        <ele>1287.3425293</ele>
        <time>2011-12-29T14:24:23Z</time>
      </trkpt>
      <trkpt lat="45.95174" lon="5.75088">
        <ele>1293.1105957</ele>
        <time>2011-12-29T14:25:44Z</time>
      </trkpt>
      <trkpt lat="45.95212" lon="5.75068">
        <ele>1297.4365234</ele>
        <time>2011-12-29T14:26:35Z</time>
      </trkpt>
      <trkpt lat="45.95229" lon="5.75001">
        <ele>1302.7236328</ele>
        <time>2011-12-29T14:28:10Z</time>
      </trkpt>
      <trkpt lat="45.95247" lon="5.74991">
        <ele>1304.1657715</ele>
        <time>2011-12-29T14:28:29Z</time>
      </trkpt>
      <trkpt lat="45.95259" lon="5.74963">
        <ele>1305.1269531</ele>
        <time>2011-12-29T14:28:54Z</time>
      </trkpt>
      <trkpt lat="45.95242" lon="5.7487">
        <ele>1309.453125</ele>
        <time>2011-12-29T14:30:08Z</time>
      </trkpt>
      <trkpt lat="45.95227" lon="5.74842">
        <ele>1306.5688477</ele>
        <time>2011-12-29T14:31:13Z</time>
      </trkpt>
      <trkpt lat="45.95234" lon="5.74758">
        <ele>1299.3591309</ele>
        <time>2011-12-29T14:32:11Z</time>
      </trkpt>
      <trkpt lat="45.95267" lon="5.74721">
        <ele>1292.630127</ele>
        <time>2011-12-29T14:32:52Z</time>
      </trkpt>
      <trkpt lat="45.95256" lon="5.74713">
        <ele>1294.5524902</ele>
        <time>2011-12-29T14:33:49Z</time>
      </trkpt>
      <trkpt lat="45.95257" lon="5.74714">
        <ele>1296.4753418</ele>
        <time>2011-12-29T14:33:59Z</time>
      </trkpt>
      <trkpt lat="45.95257" lon="5.74717">
        <ele>1293.5913086</ele>
        <time>2011-12-29T14:34:53Z</time>
      </trkpt>
      <trkpt lat="45.95262" lon="5.7472">
        <ele>1293.5913086</ele>
        <time>2011-12-29T14:35:23Z</time>
      </trkpt>
      <trkpt lat="45.95262" lon="5.74724">
        <ele>1294.0720215</ele>
        <time>2011-12-29T14:35:49Z</time>
      </trkpt>
      <trkpt lat="45.95266" lon="5.74722">
        <ele>1293.5913086</ele>
        <time>2011-12-29T14:36:07Z</time>
      </trkpt>
    </trkseg>
  </trk>
</gpx>